Time;durP1;ratioP1;P1;durP2;ratioP2;P2;SDS_P1;SDS_P2;PMS_P1;PMS_P2;Temp;Humidity;BMP_temperature;BMP_pressure;BME280_temperature;BME280_humidity;BME280_pressure;Samples;Min_cycle;Max_cycle;Signal;HPM_P1;HPM_P2
2021/12/04 00:00:13;;;;;;;6.38;3.20;;;8.60;90.00;;;;;;5032621;28;20038;-73
2021/12/04 00:02:39;;;;;;;6.07;2.60;;;8.60;90.10;;;;;;5032855;28;20025;-74
2021/12/04 00:05:07;;;;;;;6.13;2.85;;;8.60;90.10;;;;;;5032529;28;20116;-73
2021/12/04 00:07:35;;;;;;;7.43;3.08;;;8.60;90.10;;;;;;5032570;28;20029;-70
2021/12/04 00:10:03;;;;;;;8.93;3.60;;;8.60;90.10;;;;;;5031593;28;20021;-70
2021/12/04 00:12:31;;;;;;;8.85;3.15;;;8.60;90.00;;;;;;5032663;28;20034;-74
2021/12/04 00:14:57;;;;;;;8.15;3.17;;;8.50;90.00;;;;;;5033012;28;20030;-72
2021/12/04 00:17:23;;;;;;;8.45;3.05;;;8.50;90.00;;;;;;5032984;28;20021;-73
2021/12/04 00:19:48;;;;;;;6.88;2.90;;;8.50;90.20;;;;;;5033003;28;20091;-74
2021/12/04 00:22:14;;;;;;;9.40;3.25;;;8.50;90.20;;;;;;5033179;28;20018;-74
2021/12/04 00:24:40;;;;;;;8.30;2.97;;;8.50;89.90;;;;;;5033081;28;20124;-73
2021/12/04 00:27:06;;;;;;;10.13;4.22;;;8.50;90.00;;;;;;5032763;28;20045;-74
2021/12/04 00:29:32;;;;;;;12.13;3.17;;;8.50;90.10;;;;;;5032788;28;20128;-74
2021/12/04 00:32:52;;;;;;;9.90;2.70;;;8.50;90.10;;;;;;5032589;28;20446;-71
2021/12/04 00:34:46;;;;;;;9.48;2.92;;;8.50;90.00;;;;;;5035158;28;20080;-72
2021/12/04 00:50:53;;;;;;;;;;;8.40;89.30;;;;;;5036508;28;20029;-74
2021/12/04 00:53:19;;;;;;;6.10;2.90;;;8.30;90.00;;;;;;5036065;28;19905;-71
2021/12/04 00:55:44;;;;;;;8.98;3.42;;;8.30;90.30;;;;;;5035915;28;20036;-74
2021/12/04 00:58:10;;;;;;;7.53;3.20;;;8.30;90.00;;;;;;5035907;28;20065;-73
2021/12/04 01:00:36;;;;;;;6.70;2.90;;;8.30;90.10;;;;;;5043676;28;20069;-72
2021/12/04 01:03:02;;;;;;;8.93;3.30;;;8.30;90.60;;;;;;5055805;28;20378;-73
2021/12/04 01:05:28;;;;;;;6.13;3.25;;;8.30;90.30;;;;;;5054339;28;20037;-75
2021/12/04 01:07:53;;;;;;;6.75;2.90;;;8.30;90.60;;;;;;5056011;28;20075;-71
2021/12/04 01:10:19;;;;;;;6.30;3.25;;;8.30;90.40;;;;;;5056317;28;20032;-69
2021/12/04 01:12:45;;;;;;;6.53;3.20;;;8.20;90.60;;;;;;5055568;28;20021;-72
2021/12/04 01:15:11;;;;;;;8.73;3.00;;;8.20;90.70;;;;;;5055418;28;20025;-73
2021/12/04 01:17:36;;;;;;;7.10;2.80;;;8.10;90.80;;;;;;5054283;28;20021;-71
2021/12/04 01:20:03;;;;;;;6.18;3.10;;;8.10;91.00;;;;;;5055438;28;20091;-71
2021/12/04 01:22:29;;;;;;;9.07;3.10;;;8.10;90.80;;;;;;5054920;22;20057;-72
2021/12/04 01:24:54;;;;;;;7.20;3.53;;;8.10;90.90;;;;;;5035266;28;20035;-71
2021/12/04 01:27:20;;;;;;;6.80;3.55;;;8.10;91.00;;;;;;5035348;28;20021;-71
2021/12/04 01:29:46;;;;;;;11.02;4.30;;;8.10;91.10;;;;;;5035158;28;20524;-70
2021/12/04 01:32:12;;;;;;;9.73;4.28;;;8.10;91.30;;;;;;5035314;28;20029;-71
2021/12/04 01:34:38;;;;;;;7.13;4.07;;;8.00;91.30;;;;;;5035093;28;20037;-71
2021/12/04 01:37:04;;;;;;;8.10;4.13;;;8.00;91.50;;;;;;5035216;28;20029;-71
2021/12/04 01:39:30;;;;;;;12.20;4.50;;;7.90;91.70;;;;;;5034752;28;20139;-71
2021/12/04 01:41:57;;;;;;;11.10;4.50;;;7.80;91.80;;;;;;5034845;28;20026;-71
2021/12/04 01:44:22;;;;;;;8.48;4.20;;;7.80;92.10;;;;;;5035094;28;20030;-71
2021/12/04 01:46:49;;;;;;;10.43;4.10;;;7.80;91.80;;;;;;5035264;28;20083;-70
2021/12/04 01:49:15;;;;;;;9.60;3.90;;;7.80;92.00;;;;;;5034650;28;20105;-71
2021/12/04 01:51:40;;;;;;;7.53;3.35;;;7.80;92.10;;;;;;5034816;28;20429;-71
2021/12/04 01:54:06;;;;;;;8.00;3.90;;;7.80;91.90;;;;;;5034891;28;20094;-72
2021/12/04 01:56:34;;;;;;;10.25;4.30;;;7.80;92.20;;;;;;5034984;28;20337;-71
2021/12/04 01:59:01;;;;;;;10.70;4.07;;;7.80;92.20;;;;;;5034845;28;20127;-71
2021/12/04 02:01:27;;;;;;;9.85;4.25;;;7.80;92.30;;;;;;5034368;28;20026;-71
2021/12/04 02:03:52;;;;;;;10.68;4.53;;;7.80;92.30;;;;;;5033095;28;20068;-71
2021/12/04 02:06:18;;;;;;;10.77;4.75;;;7.80;92.10;;;;;;5034415;28;20419;-71
2021/12/04 02:08:45;;;;;;;6.82;3.67;;;7.80;92.40;;;;;;5034551;28;20032;-71
2021/12/04 02:11:11;;;;;;;9.20;3.88;;;7.80;92.10;;;;;;5034526;28;20025;-71
2021/12/04 02:13:37;;;;;;;9.43;4.05;;;7.80;92.20;;;;;;5034355;28;20351;-71
2021/12/04 02:16:14;;;;;;;10.05;3.92;;;7.80;92.40;;;;;;5034490;28;20041;-71
2021/12/04 02:18:40;;;;;;;8.35;4.15;;;7.80;92.40;;;;;;5034169;28;20367;-70
2021/12/04 02:21:06;;;;;;;7.43;4.10;;;7.70;92.30;;;;;;5034077;28;20062;-71
2021/12/04 02:23:33;;;;;;;8.88;3.92;;;7.70;92.10;;;;;;5034824;28;20099;-71
2021/12/04 02:25:59;;;;;;;9.20;4.95;;;7.60;92.30;;;;;;5034376;28;20470;-70
2021/12/04 02:28:25;;;;;;;8.32;4.25;;;7.60;92.30;;;;;;5034201;28;20029;-71
2021/12/04 02:30:50;;;;;;;10.68;3.88;;;7.50;92.30;;;;;;5034089;28;20026;-71
2021/12/04 02:33:17;;;;;;;9.15;4.20;;;7.50;92.40;;;;;;5034033;28;20098;-71
2021/12/04 02:35:49;;;;;;;8.57;4.13;;;7.50;92.50;;;;;;5034141;28;20076;-72
2021/12/04 02:38:17;;;;;;;8.75;4.40;;;7.50;92.70;;;;;;5033737;28;20021;-70
2021/12/04 02:40:44;;;;;;;8.88;4.18;;;7.50;92.60;;;;;;5034161;28;20033;-71
2021/12/04 02:43:10;;;;;;;8.93;4.60;;;7.50;92.70;;;;;;5033693;28;20100;-71
2021/12/04 02:45:36;;;;;;;9.15;4.68;;;7.50;92.90;;;;;;5033942;28;20034;-71
2021/12/04 02:48:03;;;;;;;8.65;5.05;;;7.40;92.50;;;;;;5033739;28;20109;-71
2021/12/04 02:50:28;;;;;;;9.27;4.40;;;7.40;92.30;;;;;;5033643;28;20343;-71
2021/12/04 02:52:54;;;;;;;7.30;4.30;;;7.40;92.30;;;;;;5033546;28;20022;-71
2021/12/04 02:55:20;;;;;;;8.32;4.78;;;7.40;92.40;;;;;;5033816;28;20033;-71
2021/12/04 02:57:47;;;;;;;8.38;4.45;;;7.40;92.60;;;;;;5034034;28;20429;-71
2021/12/04 03:00:22;;;;;;;8.93;5.05;;;7.40;92.60;;;;;;5033399;28;20045;-72
2021/12/04 03:02:49;;;;;;;9.07;4.78;;;7.40;91.50;;;;;;5033272;28;20026;-71
2021/12/04 03:05:21;;;;;;;8.73;4.43;;;7.40;92.80;;;;;;5033532;28;20063;-70
2021/12/04 03:07:47;;;;;;;13.45;4.60;;;7.40;92.90;;;;;;5033371;28;20204;-71
2021/12/04 03:10:13;;;;;;;7.05;4.28;;;7.30;92.80;;;;;;5033503;28;20108;-71
2021/12/04 03:12:40;;;;;;;8.68;4.65;;;7.30;92.60;;;;;;5033269;28;20033;-71
2021/12/04 03:15:07;;;;;;;9.00;4.90;;;7.30;92.60;;;;;;5033347;28;20363;-71
2021/12/04 03:17:33;;;;;;;8.77;4.80;;;7.30;92.60;;;;;;5033537;28;20482;-71
2021/12/04 03:19:59;;;;;;;10.40;4.85;;;7.30;93.00;;;;;;5033001;28;20048;-70
2021/12/04 03:22:25;;;;;;;8.60;5.03;;;7.30;92.80;;;;;;5032978;28;20050;-71
2021/12/04 03:24:55;;;;;;;11.32;4.95;;;7.30;92.80;;;;;;5033071;28;20036;-72
2021/12/04 03:27:21;;;;;;;7.60;4.55;;;7.30;93.00;;;;;;5033236;28;20032;-71
2021/12/04 03:29:49;;;;;;;11.65;5.30;;;7.30;92.80;;;;;;5031636;28;20036;-72
2021/12/04 03:42:53;;;;;;;10.88;4.72;;;7.30;92.80;;;;;;5033308;28;20033;-71
2021/12/04 03:45:19;;;;;;;10.60;4.13;;;7.30;92.70;;;;;;5033165;28;20164;-70
2021/12/04 03:47:48;;;;;;;7.78;4.38;;;7.20;92.80;;;;;;5032925;28;20052;-71
2021/12/04 03:50:14;;;;;;;9.10;4.60;;;7.20;92.80;;;;;;5032727;28;20033;-70
2021/12/04 03:52:40;;;;;;;9.80;4.57;;;7.10;92.70;;;;;;5032895;28;20032;-70
2021/12/04 03:55:07;;;;;;;11.90;6.57;;;7.10;92.70;;;;;;5033232;28;20386;-70
2021/12/04 03:57:33;;;;;;;7.93;4.63;;;7.10;92.80;;;;;;5032704;28;20444;-70
2021/12/04 04:00:00;;;;;;;11.70;5.05;;;7.10;93.00;;;;;;5032536;28;20430;-70
2021/12/04 04:02:26;;;;;;;9.07;4.90;;;7.10;92.90;;;;;;5032433;28;20029;-70
2021/12/04 04:04:52;;;;;;;9.45;4.68;;;7.00;92.70;;;;;;5032675;28;20065;-72
2021/12/04 04:07:18;;;;;;;10.00;4.50;;;7.00;92.80;;;;;;5031549;28;20099;-71
2021/12/04 04:09:44;;;;;;;8.77;4.53;;;7.00;92.70;;;;;;5032839;28;20030;-71
2021/12/04 04:12:10;;;;;;;9.55;5.03;;;7.00;92.90;;;;;;5032636;28;20029;-71
2021/12/04 04:14:36;;;;;;;9.27;4.75;;;7.00;92.60;;;;;;5036290;28;20029;-71
2021/12/04 04:17:03;;;;;;;10.65;5.03;;;7.00;92.80;;;;;;5036676;28;20493;-71
2021/12/04 04:19:28;;;;;;;10.32;5.53;;;7.00;92.90;;;;;;5036578;28;20048;-70
2021/12/04 04:21:56;;;;;;;10.82;5.40;;;7.00;92.90;;;;;;5036236;28;20502;-70
2021/12/04 04:24:25;;;;;;;7.82;4.90;;;7.00;92.80;;;;;;5036557;28;20386;-70
2021/12/04 04:26:51;;;;;;;10.82;5.00;;;7.00;92.80;;;;;;5036385;28;20025;-69
2021/12/04 04:29:17;;;;;;;10.63;5.15;;;7.00;92.80;;;;;;5035183;28;20033;-72
2021/12/04 04:31:47;;;;;;;12.68;5.85;;;7.00;92.70;;;;;;5036500;28;20104;-70
2021/12/04 04:34:24;;;;;;;9.75;4.68;;;7.00;92.70;;;;;;5034761;28;20026;-70
2021/12/04 04:40:26;;;;;;;8.27;5.05;;;7.00;92.80;;;;;;5036042;28;20123;-70
2021/12/04 05:14:33;;;;;;;8.60;4.60;;;6.90;92.20;;;;;;5035866;28;20496;-71
2021/12/04 05:17:08;;;;;;;9.98;4.80;;;6.80;92.70;;;;;;5035475;28;20025;-71
2021/12/04 05:19:53;;;;;;;7.97;4.53;;;6.80;92.10;;;;;;5035579;28;20037;-71
2021/12/04 05:22:21;;;;;;;10.57;5.32;;;6.80;92.20;;;;;;5035121;28;20042;-71
2021/12/04 05:24:47;;;;;;;9.60;5.53;;;6.80;92.80;;;;;;5032646;28;20425;-71
2021/12/04 05:27:13;;;;;;;11.57;6.00;;;6.70;92.80;;;;;;5035366;28;20108;-70
2021/12/04 05:29:39;;;;;;;12.77;4.82;;;6.80;92.90;;;;;;5034109;28;20383;-71
2021/12/04 05:32:06;;;;;;;9.98;4.63;;;6.70;92.70;;;;;;5035300;28;20025;-71
2021/12/04 05:34:32;;;;;;;10.60;4.55;;;6.70;92.50;;;;;;5033983;28;20029;-70
2021/12/04 05:36:58;;;;;;;7.53;4.57;;;6.70;92.70;;;;;;5035337;28;20382;-71
2021/12/04 05:39:25;;;;;;;9.02;4.88;;;6.70;92.70;;;;;;5035782;28;20045;-70
2021/12/04 05:41:51;;;;;;;8.45;4.50;;;6.80;92.90;;;;;;5035870;28;20025;-72
2021/12/04 05:44:20;;;;;;;10.68;5.00;;;6.80;92.70;;;;;;5036085;28;20033;-72
2021/12/04 05:47:01;;;;;;;9.23;4.35;;;6.80;92.70;;;;;;5034963;28;20026;-70
2021/12/04 05:49:36;;;;;;;9.35;4.75;;;6.80;92.20;;;;;;5034832;28;20030;-70
2021/12/04 05:57:31;;;;;;;11.70;4.47;;;6.80;92.20;;;;;;5035057;28;20051;-70
2021/12/04 05:59:57;;;;;;;10.35;5.13;;;6.80;92.60;;;;;;5034588;28;20494;-71
2021/12/04 06:02:23;;;;;;;8.15;4.53;;;6.80;92.50;;;;;;5034408;28;20028;-70
2021/12/04 06:04:49;;;;;;;7.57;4.15;;;6.70;92.50;;;;;;5034442;28;20025;-71
2021/12/04 06:07:14;;;;;;;9.05;4.43;;;6.70;92.70;;;;;;5034409;28;20025;-70
2021/12/04 06:09:40;;;;;;;8.13;4.28;;;6.60;92.60;;;;;;5034464;28;20483;-70
2021/12/04 06:12:08;;;;;;;6.22;3.78;;;6.60;92.60;;;;;;5034543;28;20095;-70
2021/12/04 06:14:34;;;;;;;8.88;4.85;;;6.60;92.50;;;;;;5034478;28;20053;-70
2021/12/04 06:16:59;;;;;;;10.55;4.40;;;6.60;92.70;;;;;;5034258;28;20029;-71
2021/12/04 06:24:54;;;;;;;6.47;4.10;;;6.70;92.00;;;;;;5034162;28;20547;-71
2021/12/04 06:27:19;;;;;;;10.43;4.63;;;6.70;92.50;;;;;;5034023;28;20077;-70
2021/12/04 06:29:45;;;;;;;8.48;4.93;;;6.70;92.40;;;;;;5033973;28;20052;-70
2021/12/04 06:32:11;;;;;;;13.25;5.72;;;6.60;92.40;;;;;;5033947;28;20482;-69
2021/12/04 06:34:36;;;;;;;8.32;4.68;;;6.60;92.40;;;;;;5034046;28;20029;-71
2021/12/04 06:37:02;;;;;;;7.95;4.50;;;6.60;92.50;;;;;;5033822;28;20029;-70
2021/12/04 06:39:28;;;;;;;9.88;4.85;;;6.70;92.40;;;;;;5033469;28;20038;-71
2021/12/04 06:41:53;;;;;;;8.38;5.30;;;6.80;92.50;;;;;;5033846;28;20021;-72
2021/12/04 06:44:19;;;;;;;12.15;5.28;;;6.80;92.80;;;;;;5032330;28;20475;-70
2021/12/04 06:46:45;;;;;;;9.68;6.35;;;6.80;92.60;;;;;;5033833;28;20394;-72
2021/12/04 06:49:19;;;;;;;10.57;5.13;;;6.90;92.50;;;;;;5033629;28;20029;-70
2021/12/04 06:51:49;;;;;;;15.57;5.32;;;7.00;92.30;;;;;;5033381;28;20071;-70
2021/12/04 06:54:25;;;;;;;11.27;5.07;;;7.10;92.50;;;;;;5033484;28;20437;-70
2021/12/04 06:56:51;;;;;;;14.30;6.68;;;7.20;91.80;;;;;;5033608;28;20033;-72
2021/12/04 06:59:24;;;;;;;11.38;5.00;;;7.30;92.40;;;;;;5033461;28;20026;-71
2021/12/04 07:01:50;;;;;;;12.18;4.60;;;7.30;92.20;;;;;;5033279;28;20096;-70
2021/12/04 07:04:18;;;;;;;7.57;4.38;;;7.30;92.20;;;;;;5033266;28;20023;-70
2021/12/04 07:06:45;;;;;;;9.95;4.43;;;7.30;92.20;;;;;;5033298;28;20109;-70
2021/12/04 07:09:11;;;;;;;11.77;5.30;;;7.30;92.20;;;;;;5033327;28;20026;-71
2021/12/04 07:11:37;;;;;;;9.38;4.55;;;7.40;92.20;;;;;;5032963;28;20033;-71
2021/12/04 07:14:03;;;;;;;9.10;4.47;;;7.50;92.20;;;;;;5032692;28;20398;-70
2021/12/04 07:16:29;;;;;;;10.55;4.47;;;7.50;92.10;;;;;;5032897;28;20026;-70
2021/12/04 07:18:55;;;;;;;11.18;4.90;;;7.60;92.20;;;;;;5032910;28;20037;-71
2021/12/04 07:21:21;;;;;;;10.75;4.80;;;7.60;92.00;;;;;;5032743;28;20053;-71
2021/12/04 07:23:48;;;;;;;9.68;5.13;;;7.50;92.10;;;;;;5032914;28;20040;-72
2021/12/04 07:26:13;;;;;;;8.40;4.72;;;7.60;92.10;;;;;;5032924;28;20087;-74
2021/12/04 07:28:39;;;;;;;15.93;5.57;;;7.70;91.90;;;;;;5032946;28;20021;-71
2021/12/04 07:31:05;;;;;;;12.38;5.82;;;7.80;92.10;;;;;;5032528;28;20029;-70
2021/12/04 07:33:31;;;;;;;9.32;4.97;;;7.90;91.80;;;;;;5032939;28;20032;-71
2021/12/04 07:35:57;;;;;;;12.10;5.00;;;8.00;92.00;;;;;;5031114;28;20037;-71
2021/12/04 07:38:24;;;;;;;10.23;5.10;;;8.00;91.70;;;;;;5032756;28;20033;-72
2021/12/04 07:40:50;;;;;;;8.27;5.13;;;8.00;91.80;;;;;;5031839;28;20041;-72
2021/12/04 07:43:15;;;;;;;9.98;4.93;;;8.10;91.60;;;;;;5032312;28;20090;-71
2021/12/04 07:45:42;;;;;;;8.98;5.55;;;8.10;91.50;;;;;;5032593;28;20029;-70
2021/12/04 07:48:08;;;;;;;9.18;5.10;;;8.10;91.50;;;;;;5031859;28;20030;-73
2021/12/04 07:50:36;;;;;;;14.13;5.63;;;8.00;91.20;;;;;;5032472;28;20100;-72
2021/12/04 07:53:02;;;;;;;11.68;5.60;;;7.90;90.10;;;;;;5032472;28;20033;-72
2021/12/04 07:55:29;;;;;;;17.48;7.15;;;8.00;91.20;;;;;;5031035;28;20029;-70
2021/12/04 07:57:54;;;;;;;13.48;6.80;;;7.90;91.20;;;;;;5032289;28;20466;-71
2021/12/04 08:00:22;;;;;;;10.52;6.00;;;8.00;91.40;;;;;;5032367;28;20044;-72
2021/12/04 08:02:48;;;;;;;13.80;6.03;;;8.00;91.30;;;;;;5032116;28;20442;-71
2021/12/04 08:05:15;;;;;;;11.68;5.78;;;8.00;91.30;;;;;;5031823;28;20049;-70
2021/12/04 08:07:42;;;;;;;10.63;5.10;;;8.00;91.30;;;;;;5031110;28;20103;-72
2021/12/04 08:10:11;;;;;;;11.10;5.25;;;7.90;91.30;;;;;;5032474;28;20052;-71
2021/12/04 08:12:37;;;;;;;13.35;5.30;;;7.90;91.30;;;;;;5032177;28;20034;-71
2021/12/04 08:15:05;;;;;;;10.30;5.30;;;7.80;90.90;;;;;;5032032;28;20419;-73
2021/12/04 08:17:31;;;;;;;11.73;5.18;;;7.80;91.10;;;;;;5031627;28;20087;-71
2021/12/04 08:19:56;;;;;;;10.05;5.50;;;7.80;91.00;;;;;;5031875;28;20045;-71
2021/12/04 08:22:22;;;;;;;12.68;6.00;;;7.90;91.20;;;;;;5031731;28;20046;-70
2021/12/04 08:24:48;;;;;;;10.23;6.25;;;8.00;91.10;;;;;;5032063;28;20030;-69
2021/12/04 08:27:16;;;;;;;11.55;5.93;;;8.00;91.10;;;;;;5032025;28;20084;-69
2021/12/04 08:29:41;;;;;;;14.73;6.03;;;8.00;91.00;;;;;;5031374;28;20474;-70
2021/12/04 08:32:08;;;;;;;10.10;5.07;;;8.10;90.80;;;;;;5031073;28;20030;-70
2021/12/04 08:34:34;;;;;;;12.20;5.47;;;8.10;90.60;;;;;;5031546;28;20037;-71
2021/12/04 08:37:00;;;;;;;9.38;5.28;;;8.10;90.80;;;;;;5031921;28;20382;-71
2021/12/04 08:39:26;;;;;;;7.93;4.72;;;8.10;90.40;;;;;;5028863;28;20041;-71
2021/12/04 08:41:51;;;;;;;7.88;4.60;;;8.10;90.10;;;;;;5031872;28;20134;-71
2021/12/04 08:44:19;;;;;;;10.38;5.30;;;8.10;90.50;;;;;;5031293;28;20375;-72
2021/12/04 08:46:46;;;;;;;8.02;4.72;;;8.10;90.60;;;;;;5031513;28;20471;-72
2021/12/04 08:49:15;;;;;;;12.95;5.18;;;8.20;90.50;;;;;;5030629;28;20022;-71
2021/12/04 08:51:44;;;;;;;10.20;5.93;;;8.20;90.40;;;;;;5032251;28;20029;-70
2021/12/04 08:54:14;;;;;;;12.02;5.47;;;8.30;90.00;;;;;;5030754;28;20022;-70
2021/12/04 08:56:40;;;;;;;10.75;5.70;;;8.30;89.30;;;;;;5032508;28;20030;-72
2021/12/04 08:59:07;;;;;;;8.82;4.95;;;8.40;89.70;;;;;;5033113;28;20431;-72
2021/12/04 09:01:36;;;;;;;9.32;4.95;;;8.50;89.60;;;;;;5035684;28;20034;-73
2021/12/04 09:04:06;;;;;;;10.00;5.43;;;8.50;89.10;;;;;;5035190;28;20037;-72
2021/12/04 09:06:32;;;;;;;11.07;5.13;;;8.60;89.10;;;;;;5033098;28;20037;-72
2021/12/04 09:08:58;;;;;;;9.13;4.75;;;8.70;89.10;;;;;;5035246;28;20509;-70
2021/12/04 09:11:31;;;;;;;8.82;4.95;;;8.80;88.30;;;;;;5035156;28;20029;-69
2021/12/04 09:13:58;;;;;;;9.70;5.20;;;8.90;88.50;;;;;;5034995;28;20112;-72
2021/12/04 09:16:24;;;;;;;8.55;5.07;;;8.90;88.60;;;;;;5034224;28;20521;-72
2021/12/04 09:18:51;;;;;;;11.73;5.25;;;9.00;87.60;;;;;;5033516;28;20192;-76
2021/12/04 09:21:17;;;;;;;12.13;6.32;;;9.10;87.90;;;;;;5034588;28;20072;-72
2021/12/04 09:23:50;;;;;;;11.98;4.82;;;9.10;87.30;;;;;;5035331;28;20028;-72
2021/12/04 09:26:32;;;;;;;11.63;4.90;;;9.20;86.80;;;;;;5033755;28;20029;-72
2021/12/04 10:13:06;;;;;;;8.02;4.43;;;10.60;80.50;;;;;;5013920;28;20044;-71
2021/12/04 10:35:19;;;;;;;10.52;5.47;;;11.40;76.80;;;;;;5013759;28;20034;-72
2021/12/04 10:37:52;;;;;;;9.80;4.20;;;11.60;76.30;;;;;;5014172;28;20061;-72
2021/12/04 10:40:20;;;;;;;7.40;4.03;;;11.60;75.10;;;;;;5014118;28;20049;-73
2021/12/04 10:42:55;;;;;;;8.90;4.53;;;11.70;74.90;;;;;;5013920;28;20035;-71
2021/12/04 10:45:51;;;;;;;7.13;4.15;;;11.80;74.30;;;;;;5013871;28;20026;-72
2021/12/04 10:48:21;;;;;;;8.35;4.45;;;12.10;74.40;;;;;;5028032;28;20037;-72
2021/12/04 10:51:10;;;;;;;7.63;4.05;;;12.20;73.70;;;;;;5013700;28;20552;-72
2021/12/04 10:53:45;;;;;;;8.25;3.10;;;12.20;72.70;;;;;;5013553;28;20379;-71
2021/12/04 10:56:27;;;;;;;6.43;3.78;;;12.20;71.50;;;;;;5013650;28;20122;-72
2021/12/04 11:04:52;;;;;;;11.63;5.03;;;12.20;71.20;;;;;;5013147;28;20030;-71
2021/12/04 11:21:31;;;;;;;8.63;4.80;;;12.30;68.90;;;;;;5012864;28;20001;-73
2021/12/04 11:38:01;;;;;;;10.98;4.10;;;12.60;66.80;;;;;;5012895;28;20060;-72
2021/12/04 11:43:09;;;;;;;11.65;4.78;;;12.60;67.20;;;;;;5012899;28;20068;-71
2021/12/04 11:45:48;;;;;;;8.73;4.80;;;12.60;67.20;;;;;;5012490;28;20026;-71
2021/12/04 11:48:14;;;;;;;8.55;4.05;;;12.60;67.00;;;;;;5012371;28;20026;-71
2021/12/04 11:50:49;;;;;;;12.07;6.10;;;12.70;66.70;;;;;;5012598;28;20026;-71
2021/12/04 11:53:17;;;;;;;9.27;4.93;;;12.70;66.40;;;;;;5012649;28;20022;-72
2021/12/04 11:55:46;;;;;;;8.40;4.15;;;12.80;66.60;;;;;;5012423;28;20378;-72
2021/12/04 11:58:28;;;;;;;10.05;4.60;;;12.80;65.90;;;;;;5027665;28;20351;-70
2021/12/04 12:00:59;;;;;;;7.70;4.28;;;12.90;66.00;;;;;;5012421;28;20105;-72
2021/12/04 12:03:32;;;;;;;9.13;4.50;;;13.00;65.70;;;;;;5012383;28;20025;-71
2021/12/04 12:06:04;;;;;;;8.00;4.23;;;13.00;64.50;;;;;;5012747;28;20033;-71
2021/12/04 12:08:41;;;;;;;7.78;3.70;;;13.00;64.70;;;;;;5012654;28;20022;-72
2021/12/04 12:11:10;;;;;;;8.57;3.80;;;13.10;64.10;;;;;;5012455;28;20018;-72
2021/12/04 12:13:48;;;;;;;9.45;3.95;;;13.00;63.50;;;;;;5012155;28;20072;-72
2021/12/04 12:16:19;;;;;;;9.25;3.92;;;13.00;63.60;;;;;;5012474;28;20452;-72
2021/12/04 12:19:07;;;;;;;11.50;3.90;;;12.90;63.10;;;;;;5011288;28;20029;-73
2021/12/04 12:22:07;;;;;;;11.60;5.07;;;12.90;63.70;;;;;;5012214;28;20050;-73
2021/12/04 12:36:13;;;;;;;10.65;3.15;;;13.00;62.60;;;;;;5016462;28;20113;-71
2021/12/04 12:38:48;;;;;;;7.35;3.40;;;13.00;61.70;;;;;;5034433;28;20021;-71
2021/12/04 12:41:22;;;;;;;5.82;2.90;;;13.00;61.20;;;;;;5036363;28;20033;-71
2021/12/04 12:44:07;;;;;;;5.65;2.72;;;13.00;60.10;;;;;;5034859;28;20080;-71
2021/12/04 12:46:34;;;;;;;8.00;2.92;;;13.10;60.30;;;;;;5036360;28;20040;-72
2021/12/04 12:49:01;;;;;;;7.32;2.90;;;13.20;59.50;;;;;;5037401;28;20370;-72
2021/12/04 12:51:33;;;;;;;4.63;2.40;;;13.20;59.30;;;;;;5038388;28;20029;-71
2021/12/04 12:54:03;;;;;;;8.98;3.75;;;13.20;58.90;;;;;;5037699;28;20070;-71
2021/12/04 12:56:32;;;;;;;9.15;3.78;;;13.20;58.50;;;;;;5034227;28;20052;-73
2021/12/04 12:59:21;;;;;;;7.43;3.50;;;13.20;58.70;;;;;;5035938;28;20021;-71
2021/12/04 13:13:35;;;;;;;13.57;7.75;;;13.50;59.10;;;;;;5035062;28;20064;-73
2021/12/04 13:16:12;;;;;;;9.25;4.20;;;13.70;58.10;;;;;;5035229;28;20021;-73
2021/12/04 13:18:39;;;;;;;7.55;3.58;;;13.90;58.00;;;;;;5033960;28;20033;-72
2021/12/04 13:21:10;;;;;;;7.20;3.22;;;13.90;57.10;;;;;;5033527;28;20124;-72
2021/12/04 13:23:38;;;;;;;6.28;2.90;;;13.90;56.90;;;;;;5035230;28;20495;-72
2021/12/04 13:26:12;;;;;;;19.13;8.98;;;13.90;56.00;;;;;;5035136;28;20391;-73
2021/12/04 13:28:46;;;;;;;6.68;2.92;;;13.80;55.70;;;;;;5034992;28;20060;-72
2021/12/04 13:31:12;;;;;;;5.45;2.35;;;13.70;56.10;;;;;;5035085;28;20037;-71
2021/12/04 13:33:43;;;;;;;7.18;3.28;;;13.70;55.50;;;;;;5035093;28;20036;-73
2021/12/04 13:36:18;;;;;;;6.22;2.70;;;13.60;55.70;;;;;;5035030;28;20100;-72
2021/12/04 13:38:44;;;;;;;9.32;3.20;;;13.60;55.90;;;;;;5035116;28;20067;-72
2021/12/04 13:41:11;;;;;;;7.65;3.53;;;13.60;55.90;;;;;;5033227;28;20486;-71
2021/12/04 13:43:36;;;;;;;6.53;3.20;;;13.50;56.10;;;;;;5034575;28;20029;-73
2021/12/04 13:46:04;;;;;;;6.97;3.47;;;13.50;56.10;;;;;;5033399;28;20025;-72
2021/12/04 13:48:31;;;;;;;8.38;4.05;;;13.50;56.20;;;;;;5034573;28;20017;-71
2021/12/04 13:50:59;;;;;;;9.90;4.32;;;13.50;56.80;;;;;;5034500;28;20379;-71
2021/12/04 13:53:27;;;;;;;10.23;4.70;;;13.40;56.70;;;;;;5034509;28;20030;-71
2021/12/04 13:56:00;;;;;;;8.57;4.82;;;13.40;56.50;;;;;;5033078;28;20025;-73
2021/12/04 13:58:27;;;;;;;8.45;4.63;;;13.40;57.10;;;;;;5034333;28;20025;-71
2021/12/04 14:00:52;;;;;;;10.18;5.10;;;13.40;57.30;;;;;;5034281;28;20107;-72
2021/12/04 14:03:26;;;;;;;8.55;4.95;;;13.40;57.30;;;;;;5034556;28;20022;-72
2021/12/04 14:05:52;;;;;;;;;;;13.50;57.70;;;;;;5033572;28;20033;-71
2021/12/04 14:08:18;;;;;;;8.50;4.72;;;13.40;56.80;;;;;;5034429;28;19959;-72
2021/12/04 14:10:45;;;;;;;10.02;5.25;;;13.40;57.60;;;;;;5034484;28;20474;-71
2021/12/04 14:13:17;;;;;;;9.23;5.15;;;13.40;57.90;;;;;;5034160;28;20486;-72
2021/12/04 14:15:44;;;;;;;10.13;5.70;;;13.30;57.50;;;;;;5034452;28;20029;-71
2021/12/04 14:18:12;;;;;;;9.55;5.70;;;13.30;57.90;;;;;;5034501;28;20064;-72
2021/12/04 14:20:40;;;;;;;9.60;5.90;;;13.30;58.10;;;;;;5032601;28;20140;-72
2021/12/04 14:23:06;;;;;;;9.75;5.53;;;13.30;58.10;;;;;;5034147;28;20044;-72
2021/12/04 14:25:32;;;;;;;9.98;5.28;;;13.20;58.20;;;;;;5034302;28;20112;-71
2021/12/04 14:27:59;;;;;;;9.85;4.82;;;13.30;58.30;;;;;;5034214;28;20026;-73
2021/12/04 14:30:33;;;;;;;9.40;4.90;;;13.30;58.50;;;;;;5034254;28;20106;-72
2021/12/04 14:33:02;;;;;;;10.85;4.85;;;13.30;58.40;;;;;;5033980;28;20026;-73
2021/12/04 14:35:33;;;;;;;8.90;5.28;;;13.30;58.50;;;;;;5033682;28;20034;-72
2021/12/04 14:38:01;;;;;;;10.80;5.50;;;13.30;58.50;;;;;;5032418;28;20432;-72
2021/12/04 14:40:30;;;;;;;8.98;5.07;;;13.30;58.50;;;;;;5065908;28;20044;-71
2021/12/04 14:42:56;;;;;;;8.95;4.80;;;13.30;58.50;;;;;;5033841;28;20017;-73
2021/12/04 14:45:29;;;;;;;10.32;4.55;;;13.40;58.90;;;;;;5034145;28;20148;-71
2021/12/04 14:48:09;;;;;;;9.90;5.82;;;13.40;59.30;;;;;;5033875;28;20026;-72
2021/12/04 14:50:39;;;;;;;8.88;5.47;;;13.30;59.30;;;;;;5034036;28;20033;-72
2021/12/04 14:53:07;;;;;;;13.80;5.57;;;13.30;59.30;;;;;;5033597;28;20029;-72
2021/12/04 14:55:35;;;;;;;11.00;5.63;;;13.30;59.50;;;;;;5033561;28;20025;-73
2021/12/04 14:58:05;;;;;;;10.80;6.00;;;13.30;60.00;;;;;;5031854;28;20029;-72
2021/12/04 15:00:39;;;;;;;8.80;5.00;;;13.30;60.20;;;;;;5033447;28;20041;-72
2021/12/04 15:03:12;;;;;;;8.93;4.78;;;13.30;60.80;;;;;;5033490;28;20025;-72
2021/12/04 15:05:41;;;;;;;10.32;4.18;;;13.20;60.90;;;;;;5065074;28;20119;-71
2021/12/04 15:08:20;;;;;;;10.52;4.32;;;13.30;61.60;;;;;;5033315;28;20072;-72
2021/12/04 15:10:55;;;;;;;9.85;3.40;;;13.30;62.70;;;;;;5033304;28;20025;-72
2021/12/04 15:13:24;;;;;;;7.32;3.28;;;13.30;62.60;;;;;;5033519;28;20091;-72
2021/12/04 15:15:53;;;;;;;6.35;2.78;;;13.30;62.80;;;;;;5033285;28;20056;-72
2021/12/04 15:18:23;;;;;;;6.95;3.10;;;13.30;63.60;;;;;;5033631;28;20060;-71
2021/12/04 15:20:59;;;;;;;9.02;2.92;;;13.30;63.30;;;;;;5032790;28;20378;-73
2021/12/04 15:23:28;;;;;;;9.35;2.88;;;13.30;63.70;;;;;;5033343;28;20029;-72
2021/12/04 15:25:56;;;;;;;9.82;3.63;;;13.30;64.30;;;;;;5032049;28;20025;-71
2021/12/04 15:28:25;;;;;;;6.78;3.17;;;13.20;65.00;;;;;;5033043;28;20044;-73
2021/12/04 15:30:54;;;;;;;7.30;3.17;;;13.20;65.30;;;;;;5032920;28;20367;-71
2021/12/04 15:33:39;;;;;;;19.73;10.93;;;13.20;65.80;;;;;;5031686;28;20027;-73
2021/12/04 15:36:10;;;;;;;13.85;7.82;;;13.20;66.60;;;;;;5033184;28;20025;-73
2021/12/04 15:38:46;;;;;;;11.00;4.28;;;13.10;66.80;;;;;;5031769;28;20320;-73
2021/12/04 15:41:27;;;;;;;9.55;4.18;;;13.10;67.20;;;;;;5046692;28;20060;-73
2021/12/04 15:46:46;;;;;;;9.52;4.15;;;13.10;68.20;;;;;;5063802;28;20025;-73
2021/12/04 15:54:18;;;;;;;11.10;5.38;;;13.10;70.40;;;;;;5033164;28;20070;-73
2021/12/04 15:56:49;;;;;;;9.50;4.22;;;13.10;71.20;;;;;;5032304;28;20108;-72
2021/12/04 15:59:23;;;;;;;10.45;4.05;;;13.10;72.20;;;;;;5032526;28;20033;-73
2021/12/04 16:01:53;;;;;;;10.48;4.53;;;13.10;72.40;;;;;;5032298;28;20029;-73
2021/12/04 16:04:29;;;;;;;9.98;4.20;;;13.10;73.60;;;;;;5032374;28;20056;-72
2021/12/04 16:06:57;;;;;;;6.50;3.67;;;13.10;74.20;;;;;;5032095;28;20025;-71
2021/12/04 16:09:31;;;;;;;7.50;4.13;;;13.00;74.80;;;;;;5033919;28;20033;-73
2021/12/04 16:12:05;;;;;;;9.25;4.55;;;13.00;75.20;;;;;;5036542;28;20013;-73
2021/12/04 16:14:36;;;;;;;9.48;4.53;;;13.00;76.80;;;;;;5036355;28;20029;-71
2021/12/04 16:17:04;;;;;;;8.43;4.03;;;12.90;77.40;;;;;;5036210;28;20075;-72
2021/12/04 16:19:32;;;;;;;9.98;4.05;;;12.90;78.10;;;;;;5035921;28;20039;-72